createdAt,value
2016-02-05T00:00:41.856Z,12.67
2016-02-05T00:01:41.811Z,12.75
2016-02-05T00:02:41.783Z,12.7
2016-02-05T00:03:41.769Z,12.7
2016-02-05T00:04:41.758Z,12.7
2016-02-05T00:05:41.713Z,12.74
2016-02-05T00:06:41.700Z,12.7
2016-02-05T00:07:41.656Z,12.66
2016-02-05T00:08:41.643Z,12.67
2016-02-05T00:09:41.646Z,12.63
2016-02-05T00:10:41.587Z,12.66
2016-02-05T00:11:41.574Z,12.63
2016-02-05T00:12:41.561Z,12.85
2016-02-05T00:13:41.533Z,12.74
2016-02-05T00:14:41.503Z,12.75
2016-02-05T00:15:41.480Z,12.75
2016-02-05T00:16:41.467Z,12.75
2016-02-05T00:17:41.471Z,12.69
2016-02-05T00:18:41.411Z,12.67
2016-02-05T00:19:41.414Z,12.67
2016-02-05T00:20:41.386Z,12.75
2016-02-05T00:21:41.341Z,12.69
2016-02-05T00:22:41.313Z,12.74
2016-02-05T00:23:41.315Z,12.74
2016-02-05T00:24:41.303Z,12.74
2016-02-05T00:25:41.248Z,12.63
2016-02-05T00:26:41.236Z,12.71
2016-02-05T00:27:41.222Z,12.75
2016-02-05T00:28:41.194Z,12.74
2016-02-05T00:29:41.415Z,12.74
2016-02-05T00:30:41.002Z,12.77
2016-02-05T00:31:41.129Z,12.85
2016-02-05T00:32:41.091Z,12.77
2016-02-05T00:33:41.063Z,12.75
2016-02-05T00:34:41.175Z,12.71
2016-02-05T00:35:41.031Z,12.69
2016-02-05T00:36:41.002Z,12.62
2016-02-05T00:37:40.974Z,12.75
2016-02-05T00:38:40.961Z,12.77
2016-02-05T00:39:40.948Z,12.79
2016-02-05T00:40:40.919Z,12.89
2016-02-05T00:41:40.891Z,12.69
2016-02-05T00:42:40.863Z,12.67
2016-02-05T00:43:40.856Z,12.7
2016-02-05T00:44:40.827Z,12.74
2016-02-05T00:45:40.814Z,12.69
2016-02-05T00:46:40.770Z,12.71
2016-02-05T00:47:40.773Z,12.67
2016-02-05T00:48:40.729Z,12.66
2016-02-05T00:49:40.716Z,12.69
2016-02-05T00:50:40.703Z,12.71
2016-02-05T00:51:40.659Z,12.71
2016-02-05T00:52:40.631Z,12.71
2016-02-05T00:53:40.617Z,12.64
2016-02-05T00:54:40.573Z,12.67
2016-02-05T00:55:40.564Z,12.71
2016-02-05T00:56:40.535Z,12.64
2016-02-05T00:57:40.510Z,12.7
2016-02-05T00:58:40.481Z,12.69
2016-02-05T00:59:40.468Z,12.74
2016-02-05T01:00:40.456Z,12.7
2016-02-05T01:01:40.427Z,12.74
2016-02-05T01:02:40.398Z,12.69
2016-02-05T01:03:40.385Z,12.66
2016-02-05T01:04:40.357Z,12.71
2016-02-05T01:05:40.329Z,12.71
2016-02-05T01:06:40.315Z,12.69
2016-02-05T01:07:40.288Z,12.7
2016-02-05T01:08:40.275Z,12.79
2016-02-05T01:09:40.230Z,12.67
2016-02-05T01:10:40.046Z,12.7
2016-02-05T01:11:40.220Z,12.74
2016-02-05T01:12:40.162Z,12.77
2016-02-05T01:13:40.149Z,12.74
2016-02-05T01:14:40.136Z,12.79
2016-02-05T01:15:40.138Z,12.74
2016-02-05T01:16:40.079Z,12.77
2016-02-05T01:17:40.054Z,12.78
2016-02-05T01:18:40.026Z,12.77
2016-02-05T01:19:40.012Z,12.74
2016-02-05T01:20:40.030Z,12.7
2016-02-05T01:21:39.956Z,12.75
2016-02-05T01:22:39.973Z,12.74
2016-02-05T01:23:39.914Z,12.84
2016-02-05T01:24:39.916Z,12.71
2016-02-05T01:25:39.857Z,12.66
2016-02-05T01:26:39.984Z,12.71
2016-02-05T01:27:39.836Z,12.69
2016-02-05T01:28:39.791Z,12.7
2016-02-05T01:29:39.779Z,12.74
2016-02-05T01:30:39.766Z,12.67
2016-02-05T01:31:39.721Z,12.67
2016-02-05T01:32:39.724Z,12.81
2016-02-05T01:33:39.680Z,12.74
2016-02-05T01:34:39.652Z,12.71
2016-02-05T01:35:39.689Z,12.69
2016-02-05T01:36:39.614Z,12.7
2016-02-05T01:37:39.586Z,12.67
2016-02-05T01:38:39.558Z,12.7
2016-02-05T01:39:39.544Z,12.64
2016-02-05T01:40:39.516Z,12.74
2016-02-05T01:41:39.549Z,12.64
2016-02-05T01:42:39.489Z,12.63
2016-02-05T01:43:39.446Z,12.69
2016-02-05T01:44:39.432Z,12.71
2016-02-05T01:45:39.435Z,12.71
2016-02-05T01:46:39.374Z,12.71
2016-02-05T01:47:39.364Z,12.67
2016-02-05T01:48:39.350Z,12.74
2016-02-05T01:49:39.306Z,12.69
2016-02-05T01:50:39.293Z,12.66
2016-02-05T01:51:39.280Z,12.78
2016-02-05T01:52:39.240Z,12.81
2016-02-05T01:53:39.226Z,12.82
2016-02-05T01:54:39.214Z,12.77
2016-02-05T01:55:39.188Z,12.78
2016-02-05T01:56:39.145Z,12.75
2016-02-05T01:57:39.132Z,12.75
2016-02-05T01:58:39.126Z,12.74
2016-02-05T01:59:39.082Z,12.7
2016-02-05T02:00:39.070Z,12.78
2016-02-05T02:01:39.056Z,12.77
2016-02-05T02:02:39.012Z,12.77
2016-02-05T02:03:39.020Z,12.74
2016-02-05T02:04:38.992Z,12.63
2016-02-05T02:05:38.947Z,12.74
2016-02-05T02:06:38.933Z,12.69
2016-02-05T02:07:38.906Z,12.7
2016-02-05T02:08:38.862Z,12.69
2016-02-05T02:09:38.865Z,12.81
2016-02-05T02:10:38.868Z,12.74
2016-02-05T02:11:38.808Z,12.67
2016-02-05T02:12:38.812Z,12.67
2016-02-05T02:13:38.767Z,12.67
2016-02-05T02:14:38.738Z,12.67
2016-02-05T02:15:38.726Z,12.67
2016-02-05T02:16:38.697Z,12.66
2016-02-05T02:17:38.668Z,12.75
2016-02-05T02:18:38.953Z,12.77
2016-02-05T02:19:38.611Z,12.74
2016-02-05T02:20:38.631Z,12.69
2016-02-05T02:21:38.588Z,12.7
2016-02-05T02:22:38.591Z,12.69
2016-02-05T02:23:38.578Z,12.59
2016-02-05T02:24:38.517Z,12.6
2016-02-05T02:25:38.489Z,12.7
2016-02-05T02:26:38.461Z,12.66
2016-02-05T02:27:38.448Z,12.62
2016-02-05T02:28:38.437Z,12.66
2016-02-05T02:29:38.705Z,12.64
2016-02-05T02:30:38.416Z,12.67
2016-02-05T02:31:38.357Z,12.69
2016-02-05T02:32:38.312Z,12.69
2016-02-05T02:33:38.332Z,12.69
2016-02-05T02:34:38.287Z,12.69
2016-02-05T02:35:38.258Z,12.67
2016-02-05T02:36:38.229Z,12.6
2016-02-05T02:37:38.201Z,12.69
2016-02-05T02:38:38.173Z,12.67
2016-02-05T02:39:38.207Z,12.74
2016-02-05T02:40:38.132Z,12.64
2016-02-05T02:41:38.118Z,12.74
2016-02-05T02:42:38.106Z,12.62
2016-02-05T02:43:38.063Z,12.74
2016-02-05T02:44:38.038Z,12.66
2016-02-05T02:45:38.040Z,12.66
2016-02-05T02:46:38.012Z,12.71
2016-02-05T02:47:37.968Z,12.67
2016-02-05T02:48:37.970Z,12.66
2016-02-05T02:49:37.942Z,12.66
2016-02-05T02:50:37.914Z,12.63
2016-02-05T02:51:37.948Z,12.63
2016-02-05T02:52:37.872Z,12.64
2016-02-05T02:53:37.831Z,12.74
2016-02-05T02:54:37.848Z,12.79
2016-02-05T02:55:37.789Z,12.64
2016-02-05T02:56:37.792Z,12.64
2016-02-05T02:57:37.748Z,12.71
2016-02-05T02:58:37.735Z,12.75
2016-02-05T02:59:37.708Z,12.77
2016-02-05T03:00:37.683Z,12.69
2016-02-05T03:01:37.654Z,12.71
2016-02-05T03:02:37.641Z,12.69
2016-02-05T03:03:37.675Z,12.6
2016-02-05T03:04:37.584Z,12.59
2016-02-05T03:05:37.556Z,12.6
2016-02-05T03:06:37.544Z,12.7
2016-02-05T03:07:37.514Z,12.6
2016-02-05T03:08:37.487Z,12.71
2016-02-05T03:09:37.489Z,12.77
2016-02-05T03:10:37.445Z,12.75
2016-02-05T03:11:37.447Z,12.67
2016-02-05T03:12:37.388Z,12.69
2016-02-05T03:13:37.376Z,12.71
2016-02-05T03:14:37.367Z,12.62
2016-02-05T03:15:37.482Z,12.7
2016-02-05T03:16:37.313Z,12.57
2016-02-05T03:17:37.125Z,12.67
2016-02-05T03:18:37.284Z,12.62
2016-02-05T03:19:37.224Z,12.7
2016-02-05T03:20:37.215Z,12.67
2016-02-05T03:21:37.187Z,12.66
2016-02-05T03:22:37.174Z,12.6
2016-02-05T03:23:37.145Z,12.71
2016-02-05T03:24:37.117Z,12.71
2016-02-05T03:25:37.089Z,12.64
2016-02-05T03:26:37.326Z,12.66
2016-02-05T03:27:37.048Z,12.78
2016-02-05T03:28:37.035Z,12.77
2016-02-05T03:29:37.006Z,12.78
2016-02-05T03:30:37.009Z,12.75
2016-02-05T03:31:36.977Z,12.78
2016-02-05T03:32:36.948Z,12.64
2016-02-05T03:33:36.919Z,12.84
2016-02-05T03:34:36.890Z,12.69
2016-02-05T03:35:36.862Z,12.7
2016-02-05T03:36:36.849Z,12.7
2016-02-05T03:37:36.836Z,12.63
2016-02-05T03:38:36.778Z,12.66
2016-02-05T03:39:36.781Z,12.67
2016-02-05T03:40:36.736Z,12.75
2016-02-05T03:41:36.912Z,12.67
2016-02-05T03:42:36.726Z,12.74
2016-02-05T03:43:36.683Z,12.81
2016-02-05T03:44:36.654Z,12.7
2016-02-05T03:45:36.643Z,12.77
2016-02-05T03:46:36.630Z,12.71
2016-02-05T03:47:36.585Z,12.64
2016-02-05T03:48:36.589Z,12.66
2016-02-05T03:49:36.529Z,12.7
2016-02-05T03:50:36.516Z,12.78
2016-02-05T03:51:36.487Z,12.69
2016-02-05T03:52:36.475Z,12.63
2016-02-05T03:53:36.461Z,12.82
2016-02-05T03:54:36.417Z,12.71
2016-02-05T03:55:36.405Z,12.64
2016-02-05T03:56:36.234Z,12.69
2016-02-05T03:57:36.363Z,12.66
2016-02-05T03:58:36.322Z,12.6
2016-02-05T03:59:36.324Z,12.67
2016-02-05T04:00:36.270Z,12.56
2016-02-05T04:01:36.273Z,12.63
2016-02-05T04:02:36.245Z,12.66
2016-02-05T04:03:36.201Z,12.57
2016-02-05T04:04:36.188Z,12.69
2016-02-05T04:05:36.179Z,12.62
2016-02-05T04:06:36.134Z,12.64
2016-02-05T04:07:36.137Z,12.67
2016-02-05T04:08:36.092Z,12.62
2016-02-05T04:09:36.095Z,12.67
2016-02-05T04:10:36.067Z,12.75
2016-02-05T04:11:36.022Z,12.71
2016-02-05T04:12:36.041Z,12.52
2016-02-05T04:13:35.997Z,12.7
2016-02-05T04:14:35.999Z,12.67
2016-02-05T04:15:36.158Z,12.6
2016-02-05T04:16:35.927Z,12.62
2016-02-05T04:17:35.882Z,12.69
2016-02-05T04:18:35.886Z,12.63
2016-02-05T04:19:35.841Z,12.67
2016-02-05T04:20:35.814Z,12.67
2016-02-05T04:21:35.800Z,12.69
2016-02-05T04:22:35.772Z,12.67
2016-02-05T04:23:35.936Z,12.69
2016-02-05T04:24:35.721Z,12.64
2016-02-05T04:25:35.723Z,12.62
2016-02-05T04:26:35.678Z,12.67
2016-02-05T04:27:35.650Z,12.64
2016-02-05T04:28:35.637Z,12.69
2016-02-05T04:29:35.607Z,12.6
2016-02-05T04:30:35.578Z,12.66
2016-02-05T04:31:35.581Z,12.6
2016-02-05T04:32:35.537Z,12.64
2016-02-05T04:33:35.502Z,12.6
2016-02-05T04:34:35.481Z,12.67
2016-02-05T04:35:35.444Z,12.6
2016-02-05T04:36:35.423Z,12.69
2016-02-05T04:37:35.387Z,12.62
2016-02-05T04:38:35.356Z,12.59
2016-02-05T04:39:35.339Z,12.67
2016-02-05T04:40:35.355Z,12.64
2016-02-05T04:41:35.262Z,12.69
2016-02-05T04:42:35.247Z,12.66
2016-02-05T04:43:35.249Z,12.69
2016-02-05T04:44:35.218Z,12.64
2016-02-05T04:45:35.188Z,12.64
2016-02-05T04:46:35.159Z,12.59
2016-02-05T04:47:35.129Z,12.64
2016-02-05T04:48:35.115Z,12.63
2016-02-05T04:49:35.087Z,12.66
2016-02-05T04:50:35.057Z,12.63
2016-02-05T04:51:35.061Z,12.59
2016-02-05T04:52:35.032Z,12.7
2016-02-05T04:53:34.988Z,12.63
2016-02-05T04:54:35.007Z,12.66
2016-02-05T04:55:35.165Z,12.57
2016-02-05T04:56:34.922Z,12.59
2016-02-05T04:57:34.894Z,12.74
2016-02-05T04:58:34.865Z,12.67
2016-02-05T04:59:34.853Z,12.7
2016-02-05T05:00:34.842Z,12.69
2016-02-05T05:01:34.797Z,12.64
2016-02-05T05:02:34.785Z,12.69
2016-02-05T05:03:34.774Z,12.67
2016-02-05T05:04:34.731Z,12.57
2016-02-05T05:05:34.717Z,12.59
2016-02-05T05:06:34.719Z,12.67
2016-02-05T05:07:35.097Z,12.69
2016-02-05T05:08:34.633Z,12.64
2016-02-05T05:09:34.728Z,12.69
2016-02-05T05:10:34.605Z,12.64
2016-02-05T05:11:34.577Z,12.74
2016-02-05T05:12:34.565Z,12.7
2016-02-05T05:13:34.568Z,12.7
2016-02-05T05:14:34.507Z,12.77
2016-02-05T05:15:34.479Z,12.71
2016-02-05T05:16:34.466Z,12.7
2016-02-05T05:17:34.438Z,12.67
2016-02-05T05:18:34.410Z,12.63
2016-02-05T05:19:34.396Z,12.7
2016-02-05T05:20:34.633Z,12.69
2016-02-05T05:21:34.340Z,12.64
2016-02-05T05:22:34.327Z,12.75
2016-02-05T05:23:34.284Z,12.6
2016-02-05T05:24:34.270Z,12.6
2016-02-05T05:25:34.273Z,12.56
2016-02-05T05:26:34.230Z,12.66
2016-02-05T05:27:34.200Z,12.64
2016-02-05T05:28:34.192Z,12.6
2016-02-05T05:29:34.163Z,12.62
2016-02-05T05:30:34.137Z,12.62
2016-02-05T05:31:34.109Z,12.69
2016-02-05T05:32:34.081Z,12.75
2016-02-05T05:33:34.098Z,12.64
2016-02-05T05:34:34.054Z,12.64
2016-02-05T05:35:34.010Z,12.67
2016-02-05T05:36:34.002Z,12.67
2016-02-05T05:37:33.988Z,12.63
2016-02-05T05:38:33.944Z,12.67
2016-02-05T05:39:33.947Z,12.67
2016-02-05T05:40:33.903Z,12.67
2016-02-05T05:41:33.890Z,12.62
2016-02-05T05:42:33.876Z,12.6
2016-02-05T05:43:33.834Z,12.66
2016-02-05T05:44:33.821Z,12.62
2016-02-05T05:45:33.839Z,12.54
2016-02-05T05:46:33.794Z,12.6
2016-02-05T05:47:33.750Z,12.6
2016-02-05T05:48:33.739Z,12.6
2016-02-05T05:49:33.725Z,12.6
2016-02-05T05:50:33.666Z,12.67
2016-02-05T05:51:33.669Z,12.62
2016-02-05T05:52:33.624Z,12.69
2016-02-05T05:53:33.597Z,12.71
2016-02-05T05:54:33.583Z,12.67
2016-02-05T05:55:33.555Z,12.6
2016-02-05T05:56:33.541Z,12.77
2016-02-05T05:57:33.527Z,12.6
2016-02-05T05:58:33.485Z,12.66
2016-02-05T05:59:33.472Z,12.69
2016-02-05T06:00:33.444Z,12.66
2016-02-05T06:01:33.414Z,12.69
2016-02-05T06:02:33.387Z,12.57
2016-02-05T06:03:33.389Z,12.64
2016-02-05T06:04:33.345Z,12.57
2016-02-05T06:05:33.317Z,12.63
2016-02-05T06:06:33.506Z,12.62
2016-02-05T06:07:33.275Z,12.7
2016-02-05T06:08:33.247Z,12.71
2016-02-05T06:09:33.235Z,12.64
2016-02-05T06:10:33.206Z,12.56
2016-02-05T06:11:33.193Z,12.64
2016-02-05T06:12:33.164Z,12.67
2016-02-05T06:13:33.151Z,12.69
2016-02-05T06:14:33.108Z,12.6
2016-02-05T06:15:33.079Z,12.69
2016-02-05T06:16:33.067Z,12.64
2016-02-05T06:17:32.897Z,12.75
2016-02-05T06:18:33.010Z,12.67
2016-02-05T06:19:32.999Z,12.66
2016-02-05T06:20:32.985Z,12.67
2016-02-05T06:21:32.945Z,12.63
2016-02-05T06:22:32.931Z,12.67
2016-02-05T06:23:32.903Z,12.69
2016-02-05T06:24:32.890Z,12.67
2016-02-05T06:25:32.861Z,12.71
2016-02-05T06:26:32.833Z,12.7
2016-02-05T06:27:32.835Z,12.66
2016-02-05T06:28:32.792Z,12.69
2016-02-05T06:29:32.618Z,12.67
2016-02-05T06:30:32.762Z,12.62
2016-02-05T06:31:32.717Z,12.57
2016-02-05T06:32:32.689Z,12.67
2016-02-05T06:33:32.692Z,12.57
2016-02-05T06:34:32.648Z,12.7
2016-02-05T06:35:32.634Z,12.7
2016-02-05T06:36:32.622Z,12.7
2016-02-05T06:37:32.578Z,12.6
2016-02-05T06:38:32.564Z,12.57
2016-02-05T06:39:32.536Z,12.67
2016-02-05T06:40:32.523Z,12.63
2016-02-05T06:41:32.496Z,12.62
2016-02-05T06:42:32.467Z,12.63
2016-02-05T06:43:32.439Z,12.63
2016-02-05T06:44:32.425Z,12.7
2016-02-05T06:45:32.397Z,12.71
2016-02-05T06:46:32.368Z,12.69
2016-02-05T06:47:32.356Z,12.64
2016-02-05T06:48:32.342Z,12.64
2016-02-05T06:49:32.313Z,12.77
2016-02-05T06:50:32.269Z,12.7
2016-02-05T06:51:32.273Z,12.67
2016-02-05T06:52:32.228Z,12.7
2016-02-05T06:53:32.215Z,12.78
2016-02-05T06:54:32.187Z,12.71
2016-02-05T06:55:32.174Z,12.7
2016-02-05T06:56:32.131Z,12.64
2016-02-05T06:57:32.117Z,12.71
2016-02-05T06:58:32.089Z,12.69
2016-02-05T06:59:32.057Z,12.75
2016-02-05T07:00:32.045Z,12.71
2016-02-05T07:01:32.016Z,12.71
2016-02-05T07:02:32.019Z,12.74
2016-02-05T07:03:32.130Z,12.71
2016-02-05T07:04:31.948Z,12.69
2016-02-05T07:05:32.012Z,12.62
2016-02-05T07:06:31.937Z,12.67
2016-02-05T07:07:31.877Z,12.7
2016-02-05T07:08:31.864Z,12.7
2016-02-05T07:09:31.852Z,12.7
2016-02-05T07:10:31.839Z,12.69
2016-02-05T07:11:31.795Z,12.63
2016-02-05T07:12:31.766Z,12.63
2016-02-05T07:13:31.754Z,12.7
2016-02-05T07:14:31.898Z,12.66
2016-02-05T07:15:31.854Z,12.7
2016-02-05T07:16:31.715Z,12.69
2016-02-05T07:17:31.656Z,12.75
2016-02-05T07:18:31.643Z,12.7
2016-02-05T07:19:31.677Z,12.67
2016-02-05T07:20:31.585Z,12.75
2016-02-05T07:21:31.573Z,12.75
2016-02-05T07:22:31.536Z,12.74
2016-02-05T07:23:31.522Z,12.74
2016-02-05T07:24:31.509Z,12.75
2016-02-05T07:25:31.466Z,12.75
2016-02-05T07:26:31.453Z,12.79
2016-02-05T07:27:31.425Z,12.71
2016-02-05T07:28:31.412Z,12.77
2016-02-05T07:29:31.368Z,12.77
2016-02-05T07:30:31.372Z,12.89
2016-02-05T07:31:31.344Z,12.84
2016-02-05T07:32:31.316Z,12.74
2016-02-05T07:33:31.286Z,12.84
2016-02-05T07:34:31.276Z,12.81
2016-02-05T07:35:31.232Z,12.81
2016-02-05T07:36:31.204Z,12.82
2016-02-05T07:37:31.206Z,12.85
2016-02-05T07:38:31.193Z,12.79
2016-02-05T07:39:31.148Z,12.85
2016-02-05T07:40:31.136Z,12.87
2016-02-05T07:41:31.123Z,12.88
2016-02-05T07:42:31.110Z,12.79
2016-02-05T07:43:31.065Z,12.77
2016-02-05T07:44:31.036Z,12.77
2016-02-05T07:45:31.009Z,12.75
2016-02-05T07:46:30.996Z,12.79
2016-02-05T07:47:30.998Z,12.79
2016-02-05T07:48:30.938Z,12.74
2016-02-05T07:49:30.941Z,12.78
2016-02-05T07:50:30.897Z,12.78
2016-02-05T07:51:30.868Z,12.77
2016-02-05T07:52:30.839Z,12.84
2016-02-05T07:53:30.827Z,12.85
2016-02-05T07:54:31.190Z,12.87
2016-02-05T07:55:30.788Z,12.75
2016-02-05T07:56:30.774Z,12.84
2016-02-05T07:57:30.746Z,12.71
2016-02-05T07:58:30.701Z,12.78
2016-02-05T07:59:30.704Z,12.78
2016-02-05T08:00:30.676Z,12.77
2016-02-05T08:01:30.637Z,12.88
2016-02-05T08:02:30.627Z,12.81
2016-02-05T08:03:30.599Z,12.78
2016-02-05T08:04:30.571Z,12.84
2016-02-05T08:05:30.542Z,12.79
2016-02-05T08:06:30.763Z,12.84
2016-02-05T08:07:30.500Z,12.78
2016-02-05T08:08:30.489Z,12.87
2016-02-05T08:09:30.475Z,12.85
2016-02-05T08:10:30.447Z,12.78
2016-02-05T08:11:30.418Z,12.81
2016-02-05T08:12:30.389Z,12.75
2016-02-05T08:13:30.377Z,12.78
2016-02-05T08:14:30.348Z,12.81
2016-02-05T08:15:30.304Z,12.87
2016-02-05T08:16:30.307Z,12.81
2016-02-05T08:17:30.277Z,12.85
2016-02-05T08:18:30.249Z,12.79
2016-02-05T08:19:30.237Z,12.81
2016-02-05T08:20:30.226Z,12.75
2016-02-05T08:21:30.198Z,12.85
2016-02-05T08:22:30.155Z,12.87
2016-02-05T08:23:30.125Z,12.93
2016-02-05T08:24:30.127Z,12.77
2016-02-05T08:25:30.099Z,12.77
2016-02-05T08:26:30.087Z,12.81
2016-02-05T08:27:30.045Z,12.87
2016-02-05T08:28:30.047Z,12.87
2016-02-05T08:29:30.003Z,12.89
2016-02-05T08:30:29.867Z,12.92
2016-02-05T08:31:29.963Z,12.87
2016-02-05T08:32:29.950Z,12.93
2016-02-05T08:33:29.750Z,12.85
2016-02-05T08:34:29.893Z,12.92
2016-02-05T08:35:29.880Z,12.96
2016-02-05T08:36:29.836Z,12.95
2016-02-05T08:37:29.823Z,12.88
2016-02-05T08:38:29.810Z,12.87
2016-02-05T08:39:29.782Z,12.97
2016-02-05T08:40:29.754Z,12.82
2016-02-05T08:41:29.710Z,12.81
2016-02-05T08:42:29.713Z,12.75
2016-02-05T08:43:29.715Z,12.88
2016-02-05T08:44:29.655Z,12.85
2016-02-05T08:45:29.658Z,12.81
2016-02-05T08:46:29.599Z,12.82
2016-02-05T08:47:29.587Z,12.81
2016-02-05T08:48:29.574Z,12.89
2016-02-05T08:49:29.577Z,12.92
2016-02-05T08:50:29.518Z,12.77
2016-02-05T08:51:29.489Z,12.82
2016-02-05T08:52:29.478Z,12.92
2016-02-05T08:53:29.449Z,12.93
2016-02-05T08:54:29.420Z,12.88
2016-02-05T08:55:29.392Z,12.85
2016-02-05T08:56:29.380Z,12.82
2016-02-05T08:57:29.366Z,12.82
2016-02-05T08:58:29.478Z,12.93
2016-02-05T08:59:29.324Z,12.88
2016-02-05T09:00:29.298Z,12.93
2016-02-05T09:01:29.287Z,12.96
2016-02-05T09:02:29.243Z,13
2016-02-05T09:03:29.246Z,12.97
2016-02-05T09:04:29.201Z,12.89
2016-02-05T09:05:29.207Z,13.03
2016-02-05T09:06:29.179Z,12.92
2016-02-05T09:07:29.135Z,13.04
2016-02-05T09:08:29.106Z,13.07
2016-02-05T09:09:29.359Z,12.97
2016-02-05T09:10:29.112Z,13.03
2016-02-05T09:11:29.051Z,13.03
2016-02-05T09:12:29.022Z,12.97
2016-02-05T09:13:29.012Z,12.95
2016-02-05T09:14:29.002Z,13.04
2016-02-05T09:15:28.943Z,13.04
2016-02-05T09:16:28.931Z,12.92
2016-02-05T09:17:28.903Z,13.04
2016-02-05T09:18:28.905Z,12.97
2016-02-05T09:19:28.861Z,12.96
2016-02-05T09:20:28.840Z,12.99
2016-02-05T09:21:28.843Z,13.04
2016-02-05T09:22:28.799Z,13.04
2016-02-05T09:23:28.770Z,13.02
2016-02-05T09:24:28.976Z,13.02
2016-02-05T09:25:28.733Z,13.03
2016-02-05T09:26:28.704Z,13
2016-02-05T09:27:28.707Z,13.03
2016-02-05T09:28:28.647Z,12.97
2016-02-05T09:29:28.649Z,13.03
2016-02-05T09:30:28.605Z,13.04
2016-02-05T09:31:28.592Z,13.04
2016-02-05T09:32:28.563Z,13.03
2016-02-05T09:33:28.566Z,13.04
2016-02-05T09:34:28.523Z,13.09
2016-02-05T09:35:28.509Z,13.03
2016-02-05T09:36:28.497Z,13.03
2016-02-05T09:37:28.452Z,13.12
2016-02-05T09:38:28.674Z,13.07
2016-02-05T09:39:28.411Z,13.06
2016-02-05T09:40:28.398Z,13.04
2016-02-05T09:41:28.370Z,13.04
2016-02-05T09:42:28.340Z,13.03
2016-02-05T09:43:28.343Z,12.97
2016-02-05T09:44:28.299Z,13.04
2016-02-05T09:45:28.286Z,13.02
2016-02-05T09:46:28.259Z,13.02
2016-02-05T09:47:28.246Z,13.07
2016-02-05T09:48:28.204Z,13.07
2016-02-05T09:49:28.192Z,13.07
2016-02-05T09:50:28.179Z,13.03
2016-02-05T09:51:28.134Z,13.06
2016-02-05T09:52:28.137Z,13
2016-02-05T09:53:28.078Z,13.04
2016-02-05T09:54:28.097Z,13.06
2016-02-05T09:55:28.053Z,13.04
2016-02-05T09:56:28.024Z,13
2016-02-05T09:57:28.011Z,12.97
2016-02-05T09:58:27.984Z,13.06
2016-02-05T09:59:27.956Z,13.04
2016-02-05T10:00:27.942Z,13.03
2016-02-05T10:01:28.148Z,12.95
2016-02-05T10:02:27.901Z,13.12
2016-02-05T10:03:27.857Z,13.02
2016-02-05T10:04:27.860Z,13.06
2016-02-05T10:05:27.895Z,13.03
2016-02-05T10:06:27.866Z,13
2016-02-05T10:07:27.791Z,13.04
2016-02-05T10:08:27.779Z,13.04
2016-02-05T10:09:27.734Z,13.07
2016-02-05T10:10:27.705Z,13.03
2016-02-05T10:11:27.708Z,13.04
2016-02-05T10:12:27.664Z,13.09
2016-02-05T10:13:27.635Z,13
2016-02-05T10:14:27.654Z,13.02
2016-02-05T10:15:27.593Z,13.03
2016-02-05T10:16:27.583Z,13.07
2016-02-05T10:17:27.554Z,13.02
2016-02-05T10:18:27.545Z,13.03
2016-02-05T10:19:27.517Z,13.07
2016-02-05T10:20:27.487Z,13.06
2016-02-05T10:21:27.459Z,13.02
2016-02-05T10:22:27.446Z,12.97
2016-02-05T10:23:27.418Z,13.02
2016-02-05T10:24:27.389Z,13.04
2016-02-05T10:25:27.579Z,13.02
2016-02-05T10:26:28.441Z,13
2016-02-05T10:27:27.367Z,12.99
2016-02-05T10:28:27.306Z,13.03
2016-02-05T10:29:27.294Z,13.02
2016-02-05T10:30:27.280Z,13.03
2016-02-05T10:31:27.236Z,13.02
2016-02-05T10:32:27.239Z,12.97
2016-02-05T10:33:27.198Z,13.06
2016-02-05T10:34:27.185Z,12.99
2016-02-05T10:35:27.156Z,13.06
2016-02-05T10:36:27.144Z,12.96
2016-02-05T10:37:27.147Z,13.04
2016-02-05T10:38:27.086Z,12.99
2016-02-05T10:39:27.060Z,13.07
2016-02-05T10:40:27.047Z,13.06
2016-02-05T10:41:27.018Z,12.95
2016-02-05T10:42:26.990Z,12.96
2016-02-05T10:43:26.977Z,13.04
2016-02-05T10:44:26.948Z,13.04
2016-02-05T10:45:26.920Z,12.92
2016-02-05T10:46:26.891Z,12.97
2016-02-05T10:47:26.878Z,12.96
2016-02-05T10:48:26.881Z,12.93
2016-02-05T10:49:26.837Z,12.92
2016-02-05T10:50:26.808Z,12.89
2016-02-05T10:51:26.811Z,12.99
2016-02-05T10:52:26.767Z,12.99
2016-02-05T10:53:26.753Z,13.02
2016-02-05T10:54:26.725Z,13.04
2016-02-05T10:55:26.697Z,12.99
2016-02-05T10:56:26.668Z,13
2016-02-05T10:57:26.655Z,13.02
2016-02-05T10:58:26.861Z,13
2016-02-05T10:59:26.615Z,13.03
2016-02-05T11:00:26.586Z,13.02
2016-02-05T11:01:26.589Z,12.96
2016-02-05T11:02:26.531Z,12.99
2016-02-05T11:03:26.627Z,13.07
2016-02-05T11:04:26.489Z,13
2016-02-05T11:05:26.492Z,13.07
2016-02-05T11:06:26.463Z,13.06
2016-02-05T11:07:26.435Z,13.04
2016-02-05T11:08:26.405Z,12.99
2016-02-05T11:09:26.377Z,13.09
2016-02-05T11:10:26.411Z,13.07
2016-02-05T11:11:26.353Z,13.09
2016-02-05T11:12:26.324Z,13
2016-02-05T11:13:26.295Z,13.03
2016-02-05T11:14:26.283Z,13
2016-02-05T11:15:26.254Z,13.06
2016-02-05T11:16:26.226Z,13.11
2016-02-05T11:17:26.198Z,13.06
2016-02-05T11:18:26.201Z,13.07
2016-02-05T11:19:26.159Z,13.06
2016-02-05T11:20:26.130Z,13.07
2016-02-05T11:21:26.133Z,13.04
2016-02-05T11:22:26.135Z,13.09
2016-02-05T11:23:26.091Z,13.09
2016-02-05T11:24:26.064Z,13.11
2016-02-05T11:25:26.035Z,13.07
2016-02-05T11:26:26.006Z,13.07
2016-02-05T11:27:25.994Z,13.18
2016-02-05T11:28:25.950Z,13.11
2016-02-05T11:29:25.952Z,13.15
2016-02-05T11:30:25.908Z,13.12
2016-02-05T11:31:25.895Z,13.15
2016-02-05T11:32:25.884Z,13.09
2016-02-05T11:33:25.855Z,13.09
2016-02-05T11:34:25.827Z,13.2
2016-02-05T11:35:25.813Z,13.15
2016-02-05T11:36:25.802Z,13.15
2016-02-05T11:37:25.761Z,13.09
2016-02-05T11:38:25.733Z,13.17
2016-02-05T11:39:25.705Z,13.11
2016-02-05T11:40:25.707Z,13.14
2016-02-05T11:41:25.679Z,13.2
2016-02-05T11:42:25.634Z,13.06
2016-02-05T11:43:25.622Z,13.18
2016-02-05T11:44:25.593Z,13.2
2016-02-05T11:45:25.581Z,13.22
2016-02-05T11:46:25.567Z,13.2
2016-02-05T11:47:25.554Z,13.14
2016-02-05T11:48:25.525Z,13.15
2016-02-05T11:49:25.497Z,13.18
2016-02-05T11:50:25.484Z,13.22
2016-02-05T11:51:25.440Z,13.21
2016-02-05T11:52:25.411Z,13.15
2016-02-05T11:53:25.383Z,13.15
2016-02-05T11:54:25.369Z,13.11
2016-02-05T11:55:25.622Z,13.22
2016-02-05T11:56:25.360Z,13.21
2016-02-05T11:57:25.316Z,13.21
2016-02-05T11:58:25.272Z,13.24
2016-02-05T11:59:25.290Z,13.2
2016-02-05T12:00:25.371Z,13.14
2016-02-05T12:01:25.217Z,13.21
2016-02-05T12:02:25.237Z,13.17
2016-02-05T12:03:25.162Z,13.21
2016-02-05T12:04:25.149Z,13.14
2016-02-05T12:05:25.138Z,13.24
2016-02-05T12:06:25.109Z,13.24
2016-02-05T12:07:25.081Z,13.27
2016-02-05T12:08:25.068Z,13.29
2016-02-05T12:09:25.039Z,13.15
2016-02-05T12:10:25.015Z,13.22
2016-02-05T12:11:25.017Z,13.21
2016-02-05T12:12:24.957Z,13.21
2016-02-05T12:13:24.976Z,13.29
2016-02-05T12:14:24.947Z,13.25
2016-02-05T12:15:24.918Z,13.33
2016-02-05T12:16:24.874Z,13.24
2016-02-05T12:17:24.879Z,13.27
2016-02-05T12:18:25.038Z,13.27
2016-02-05T12:19:24.822Z,13.22
2016-02-05T12:20:24.808Z,13.25
2016-02-05T12:21:24.765Z,13.29
2016-02-05T12:22:24.754Z,13.24
2016-02-05T12:23:24.725Z,13.24
2016-02-05T12:24:24.712Z,13.22
2016-02-05T12:25:24.684Z,13.27
2016-02-05T12:26:24.641Z,13.27
2016-02-05T12:27:24.658Z,13.3
2016-02-05T12:28:24.661Z,13.27
2016-02-05T12:29:24.585Z,13.32
2016-02-05T12:30:24.560Z,13.22
2016-02-05T12:31:24.546Z,13.29
2016-02-05T12:32:24.534Z,13.25
2016-02-05T12:33:24.493Z,13.25
2016-02-05T12:34:24.497Z,13.29
2016-02-05T12:35:24.452Z,13.22
2016-02-05T12:36:24.439Z,13.27
2016-02-05T12:37:24.410Z,13.3
2016-02-05T12:38:24.386Z,13.25
2016-02-05T12:39:24.372Z,13.12
2016-02-05T12:40:24.344Z,13.27
2016-02-05T12:41:24.316Z,13.22
2016-02-05T12:42:24.319Z,13.32
2016-02-05T12:43:24.290Z,13.18
2016-02-05T12:44:24.246Z,13.25
2016-02-05T12:45:24.233Z,13.27
2016-02-05T12:46:24.252Z,13.22
2016-02-05T12:47:24.426Z,13.21
2016-02-05T12:48:24.179Z,13.27
2016-02-05T12:49:24.181Z,13.27
2016-02-05T12:50:24.111Z,13.2
2016-02-05T12:51:24.113Z,13.22
2016-02-05T12:52:24.194Z,13.22
2016-02-05T12:53:24.040Z,13.25
2016-02-05T12:54:24.027Z,13.24
2016-02-05T12:55:24.018Z,13.21
2016-02-05T12:56:24.021Z,13.25